createdAt,value
2017-09-28T00:00:56.166Z,27.90
2017-09-28T00:03:23.351Z,29.30
2017-09-28T00:05:49.826Z,26.50
2017-09-28T00:08:16.255Z,32.40
2017-09-28T00:10:42.687Z,28.53
2017-09-28T00:13:09.163Z,32.00
2017-09-28T00:15:35.562Z,26.20
2017-09-28T00:18:02.003Z,29.27
2017-09-28T00:20:29.199Z,29.10
2017-09-28T00:22:55.617Z,29.17
2017-09-28T00:25:22.089Z,35.67
2017-09-28T00:27:48.523Z,28.53
2017-09-28T00:30:14.989Z,32.10
2017-09-28T00:32:42.150Z,31.70
2017-09-28T00:35:09.487Z,28.53
2017-09-28T00:37:36.634Z,29.70
2017-09-28T00:40:03.795Z,31.33
2017-09-28T00:42:31.070Z,29.53
2017-09-28T00:44:57.475Z,30.50
2017-09-28T00:47:24.659Z,30.67
2017-09-28T00:49:51.143Z,30.00
2017-09-28T00:52:17.653Z,30.50
2017-09-28T00:54:44.071Z,33.97
2017-09-28T00:57:10.491Z,33.50
2017-09-28T00:59:37.072Z,29.20
2017-09-28T01:02:03.511Z,29.47
2017-09-28T01:04:29.967Z,29.30
2017-09-28T01:06:56.401Z,30.80
2017-09-28T01:09:23.625Z,35.40
2017-09-28T01:11:50.068Z,30.50
2017-09-28T01:14:17.283Z,30.80
2017-09-28T01:16:43.738Z,38.23
2017-09-28T01:19:10.165Z,31.20
2017-09-28T01:21:36.654Z,33.17
2017-09-28T01:24:03.111Z,35.03
2017-09-28T01:26:29.542Z,34.00
2017-09-28T01:28:56.043Z,34.47
2017-09-28T01:31:22.501Z,37.37
2017-09-28T01:33:48.943Z,35.27
2017-09-28T01:36:15.358Z,31.73
2017-09-28T01:38:41.855Z,38.20
2017-09-28T01:41:09.118Z,33.37
2017-09-28T01:43:36.315Z,36.20
2017-09-28T01:46:02.742Z,38.77
2017-09-28T01:48:29.223Z,38.67
2017-09-28T01:50:56.451Z,40.47
2017-09-28T01:53:23.051Z,36.30
2017-09-28T01:55:49.475Z,35.30
2017-09-28T01:58:15.887Z,36.40
2017-09-28T02:00:42.339Z,40.07
2017-09-28T02:03:08.751Z,33.13
2017-09-28T02:05:35.944Z,32.07
2017-09-28T02:08:02.358Z,36.57
2017-09-28T02:10:28.821Z,35.87
2017-09-28T02:12:55.287Z,39.50
2017-09-28T02:15:22.434Z,35.23
2017-09-28T02:17:49.740Z,35.30
2017-09-28T02:20:16.155Z,34.80
2017-09-28T02:22:42.619Z,33.73
2017-09-28T02:25:09.042Z,34.27
2017-09-28T02:27:35.514Z,34.60
2017-09-28T02:30:01.943Z,32.43
2017-09-28T02:32:28.364Z,40.73
2017-09-28T02:34:54.799Z,44.47
2017-09-28T02:37:21.247Z,49.33
2017-09-28T02:39:47.678Z,47.47
2017-09-28T02:42:15.584Z,38.50
2017-09-28T02:44:42.031Z,44.10
2017-09-28T02:47:08.464Z,35.50
2017-09-28T02:49:34.923Z,36.10
2017-09-28T02:52:01.391Z,33.40
2017-09-28T02:54:28.537Z,39.97
2017-09-28T02:56:55.738Z,39.90
2017-09-28T02:59:22.157Z,36.50
2017-09-28T03:01:48.597Z,39.43
2017-09-28T03:04:15.078Z,43.07
2017-09-28T03:06:41.552Z,38.60
2017-09-28T03:09:08.004Z,37.97
2017-09-28T03:11:34.439Z,35.20
2017-09-28T03:14:00.913Z,36.47
2017-09-28T03:16:27.366Z,36.50
2017-09-28T03:18:54.533Z,41.73
2017-09-28T03:21:21.031Z,40.43
2017-09-28T03:23:48.192Z,41.47
2017-09-28T03:26:15.346Z,40.07
2017-09-28T03:28:42.544Z,37.07
2017-09-28T03:31:08.964Z,34.70
2017-09-28T03:33:35.444Z,35.57
2017-09-28T03:36:02.071Z,34.63
2017-09-28T03:38:28.506Z,36.43
2017-09-28T03:40:54.971Z,37.10
2017-09-28T03:43:21.491Z,37.97
2017-09-28T03:45:48.698Z,37.03
2017-09-28T03:48:15.119Z,39.67
2017-09-28T03:50:41.802Z,39.40
2017-09-28T03:53:08.211Z,39.00
2017-09-28T03:55:34.650Z,37.17
2017-09-28T03:58:01.163Z,33.50
2017-09-28T04:00:27.607Z,33.73
2017-09-28T04:02:54.071Z,35.23
2017-09-28T04:05:21.355Z,36.30
2017-09-28T04:07:47.787Z,36.10
2017-09-28T04:10:14.220Z,39.03
2017-09-28T04:12:40.680Z,36.83
2017-09-28T04:15:07.188Z,35.67
2017-09-28T04:17:33.607Z,38.27
2017-09-28T04:20:00.058Z,37.90
2017-09-28T04:22:26.485Z,38.87
2017-09-28T04:24:53.090Z,36.20
2017-09-28T04:27:19.559Z,34.20
2017-09-28T04:29:45.999Z,35.67
2017-09-28T04:32:12.454Z,37.17
2017-09-28T04:34:38.912Z,36.70
2017-09-28T04:37:05.497Z,36.83
2017-09-28T04:39:31.927Z,40.93
2017-09-28T04:41:58.356Z,36.47
2017-09-28T04:44:24.811Z,36.63
2017-09-28T04:46:51.265Z,40.37
2017-09-28T04:49:17.729Z,38.93
2017-09-28T04:51:44.891Z,36.43
2017-09-28T04:54:11.342Z,38.23
2017-09-28T04:56:37.776Z,38.07
2017-09-28T04:59:04.239Z,35.90
2017-09-28T05:01:30.671Z,34.57
2017-09-28T05:03:57.152Z,35.70
2017-09-28T05:06:24.350Z,33.10
2017-09-28T05:08:50.763Z,35.67
2017-09-28T05:11:17.211Z,35.30
2017-09-28T05:13:43.623Z,32.63
2017-09-28T05:16:10.069Z,32.80
2017-09-28T05:18:36.516Z,33.03
2017-09-28T05:21:03.021Z,33.53
2017-09-28T05:23:29.615Z,34.73
2017-09-28T05:25:56.058Z,36.23
2017-09-28T05:28:23.254Z,36.20
2017-09-28T05:30:49.679Z,37.77
2017-09-28T05:33:16.105Z,34.53
2017-09-28T05:35:42.579Z,34.83
2017-09-28T05:38:09.256Z,33.03
2017-09-28T05:40:36.468Z,34.70
2017-09-28T05:43:02.895Z,31.00
2017-09-28T05:45:29.443Z,28.20
2017-09-28T05:47:55.940Z,26.00
2017-09-28T05:50:22.410Z,24.87
2017-09-28T05:52:48.843Z,24.67
2017-09-28T05:55:15.327Z,26.60
2017-09-28T05:57:41.814Z,27.80
2017-09-28T06:00:08.222Z,27.97
2017-09-28T06:02:34.704Z,28.30
2017-09-28T06:05:01.882Z,28.57
2017-09-28T06:07:28.336Z,28.80
2017-09-28T06:09:54.766Z,28.93
2017-09-28T06:12:21.328Z,28.67
2017-09-28T06:14:47.769Z,25.97
2017-09-28T06:17:14.236Z,25.27
2017-09-28T06:19:40.693Z,25.90
2017-09-28T06:22:07.171Z,25.37
2017-09-28T06:24:34.346Z,25.07
2017-09-28T06:27:01.535Z,24.60
2017-09-28T06:29:27.965Z,24.97
2017-09-28T06:31:54.419Z,23.40
2017-09-28T06:34:20.845Z,22.30
2017-09-28T06:36:47.291Z,24.90
2017-09-28T06:39:13.727Z,24.47
2017-09-28T06:41:40.131Z,24.53
2017-09-28T06:44:06.586Z,25.00
2017-09-28T06:46:33.011Z,25.53
2017-09-28T06:48:59.592Z,23.83
2017-09-28T06:51:26.762Z,26.00
2017-09-28T06:53:53.187Z,25.40
2017-09-28T06:56:19.626Z,27.00
2017-09-28T06:58:46.045Z,26.93
2017-09-28T07:01:12.550Z,25.80
2017-09-28T07:03:39.007Z,26.50
2017-09-28T07:06:06.227Z,25.57
2017-09-28T07:08:32.616Z,27.00
2017-09-28T07:10:59.057Z,25.83
2017-09-28T07:13:25.478Z,22.97
2017-09-28T07:15:51.934Z,24.07
2017-09-28T07:18:18.364Z,21.80
2017-09-28T07:20:44.765Z,21.90
2017-09-28T07:23:11.262Z,24.57
2017-09-28T07:25:37.687Z,23.13
2017-09-28T07:28:04.146Z,22.73
2017-09-28T07:30:31.326Z,23.40
2017-09-28T07:32:57.826Z,23.20
2017-09-28T07:35:25.000Z,23.60
2017-09-28T07:37:51.435Z,23.40
2017-09-28T07:40:17.977Z,21.80
2017-09-28T07:42:44.412Z,21.53
2017-09-28T07:45:10.882Z,21.37
2017-09-28T07:47:37.327Z,21.80
2017-09-28T07:50:03.990Z,18.27
2017-09-28T07:52:31.181Z,19.90
2017-09-28T07:54:57.607Z,21.23
2017-09-28T07:57:24.084Z,20.30
2017-09-28T07:59:50.508Z,19.00
2017-09-28T08:02:18.495Z,19.43
2017-09-28T08:04:45.665Z,19.40
2017-09-28T08:07:12.124Z,19.47
2017-09-28T08:09:38.547Z,19.47
2017-09-28T08:12:04.984Z,18.27
2017-09-28T08:14:31.440Z,18.17
2017-09-28T08:16:57.899Z,17.43
2017-09-28T08:19:24.357Z,15.00
2017-09-28T08:21:51.542Z,15.10
2017-09-28T08:24:17.984Z,18.63
2017-09-28T08:26:44.431Z,15.03
2017-09-28T08:29:10.859Z,15.17
2017-09-28T08:31:37.290Z,17.93
2017-09-28T08:34:03.824Z,16.67
2017-09-28T08:36:30.278Z,17.30
2017-09-28T08:38:56.693Z,15.53
2017-09-28T08:41:23.111Z,15.37
2017-09-28T08:43:49.738Z,13.60
2017-09-28T08:46:16.164Z,13.80
2017-09-28T08:48:42.803Z,13.77
2017-09-28T08:51:09.259Z,14.60
2017-09-28T08:53:35.733Z,14.50
2017-09-28T08:56:02.965Z,13.00
2017-09-28T08:58:29.386Z,14.10
2017-09-28T09:00:55.936Z,15.87
2017-09-28T09:03:22.334Z,15.73
2017-09-28T09:05:48.801Z,15.97
2017-09-28T09:08:15.243Z,14.33
2017-09-28T09:10:42.402Z,12.83
2017-09-28T09:13:09.602Z,13.63
2017-09-28T09:15:36.074Z,12.83
2017-09-28T09:18:03.246Z,12.23
2017-09-28T09:20:29.678Z,14.67
2017-09-28T09:22:56.152Z,17.50
2017-09-28T09:25:22.595Z,10.90
2017-09-28T09:27:49.068Z,11.30
2017-09-28T09:30:16.275Z,12.40
2017-09-28T09:32:42.744Z,11.70
2017-09-28T09:35:09.888Z,10.83
2017-09-28T09:37:36.344Z,9.90
2017-09-28T09:40:02.792Z,10.03
2017-09-28T09:42:29.312Z,10.30
2017-09-28T09:44:55.774Z,10.57
2017-09-28T09:47:22.217Z,10.57
2017-09-28T09:49:48.763Z,9.53
2017-09-28T09:52:15.202Z,36.43
2017-09-28T09:54:41.703Z,9.40
2017-09-28T09:57:08.139Z,10.03
2017-09-28T09:59:34.552Z,9.00
2017-09-28T10:02:01.018Z,9.00
2017-09-28T10:04:27.443Z,9.20
2017-09-28T10:06:56.571Z,9.80
2017-09-28T10:09:29.604Z,9.90
2017-09-28T10:12:02.122Z,10.13
2017-09-28T10:14:34.133Z,11.00
2017-09-28T10:17:00.588Z,8.43
2017-09-28T10:19:27.142Z,9.53
2017-09-28T10:21:53.611Z,9.77
2017-09-28T10:24:20.055Z,9.83
2017-09-28T10:26:47.444Z,9.73
2017-09-28T10:29:13.939Z,10.37
2017-09-28T10:31:41.263Z,10.87
2017-09-28T10:34:07.715Z,11.30
2017-09-28T10:36:34.146Z,9.87
2017-09-28T10:39:00.594Z,10.70
2017-09-28T10:41:27.756Z,11.80
2017-09-28T10:43:54.236Z,11.03
2017-09-28T10:46:20.689Z,11.23
2017-09-28T10:48:47.172Z,10.80
2017-09-28T10:51:13.627Z,11.60
2017-09-28T10:53:40.065Z,12.07
2017-09-28T10:56:06.495Z,11.37
2017-09-28T10:58:32.962Z,12.70
2017-09-28T11:01:00.169Z,11.80
2017-09-28T11:03:26.604Z,12.57
2017-09-28T11:05:53.070Z,12.07
2017-09-28T11:08:19.540Z,12.90
2017-09-28T11:10:45.966Z,13.00
2017-09-28T11:13:13.162Z,13.30
2017-09-28T11:18:29.660Z,12.03
2017-09-28T11:20:56.115Z,14.80
2017-09-28T11:23:22.627Z,15.03
2017-09-28T11:25:49.076Z,15.37
2017-09-28T11:28:15.555Z,16.60
2017-09-28T11:30:42.756Z,16.57
2017-09-28T11:33:09.404Z,16.90
2017-09-28T11:35:35.870Z,16.00
2017-09-28T11:38:02.365Z,17.37
2017-09-28T11:40:28.823Z,16.63
2017-09-28T11:42:55.295Z,17.63
2017-09-28T11:45:21.756Z,15.57
2017-09-28T11:47:48.183Z,17.07
2017-09-28T11:50:14.676Z,16.00
2017-09-28T11:52:41.995Z,15.17
2017-09-28T11:55:08.516Z,16.90
2017-09-28T11:57:34.984Z,14.70
2017-09-28T12:00:01.474Z,16.90
2017-09-28T12:02:28.098Z,15.70
2017-09-28T12:04:54.571Z,16.80
2017-09-28T12:07:21.027Z,16.03
2017-09-28T12:09:47.455Z,16.43
2017-09-28T12:12:13.903Z,16.57
2017-09-28T12:14:41.087Z,16.40
2017-09-28T12:17:07.568Z,15.90
2017-09-28T12:19:34.015Z,16.53
2017-09-28T12:22:00.486Z,16.10
2017-09-28T12:24:26.947Z,15.40
2017-09-28T12:26:53.395Z,14.70
2017-09-28T12:29:19.881Z,15.47
2017-09-28T12:31:46.319Z,16.60
2017-09-28T12:34:12.738Z,16.67
2017-09-28T12:36:39.184Z,16.20
2017-09-28T12:39:05.616Z,16.03
2017-09-28T12:41:32.082Z,14.23
2017-09-28T12:43:58.511Z,13.17
2017-09-28T12:46:24.943Z,14.20
2017-09-28T12:48:51.545Z,14.53
2017-09-28T12:51:18.055Z,12.20
2017-09-28T12:53:45.227Z,11.90
2017-09-28T12:56:11.652Z,12.93
2017-09-28T12:58:38.918Z,15.47
2017-09-28T13:01:05.504Z,13.97
2017-09-28T13:03:31.947Z,14.30
2017-09-28T13:05:58.406Z,14.40
2017-09-28T13:08:24.854Z,13.70
2017-09-28T13:10:51.275Z,13.57
2017-09-28T13:13:17.740Z,13.23
2017-09-28T13:15:44.196Z,13.30
2017-09-28T13:18:10.636Z,14.23
2017-09-28T13:20:37.113Z,14.80
2017-09-28T13:23:03.550Z,14.90
2017-09-28T13:25:30.016Z,14.10
2017-09-28T13:27:56.511Z,13.10
2017-09-28T13:30:22.982Z,12.70
2017-09-28T13:32:49.456Z,12.90
2017-09-28T13:35:16.695Z,13.30
2017-09-28T13:37:43.126Z,12.70
2017-09-28T13:40:11.024Z,13.40
2017-09-28T13:42:37.478Z,12.77
2017-09-28T13:45:03.919Z,11.43
2017-09-28T13:47:30.395Z,11.33
2017-09-28T13:49:56.882Z,11.43
2017-09-28T13:52:23.438Z,12.77
2017-09-28T13:54:49.900Z,12.10
2017-09-28T13:57:16.316Z,13.67
2017-09-28T13:59:42.792Z,12.63
2017-09-28T14:02:09.341Z,13.60
2017-09-28T14:04:35.892Z,11.77
2017-09-28T14:07:02.329Z,10.70
2017-09-28T14:09:28.817Z,10.60
2017-09-28T14:11:56.023Z,10.90
2017-09-28T14:14:22.493Z,10.20
2017-09-28T14:16:50.183Z,11.67
2017-09-28T14:19:16.628Z,11.00
2017-09-28T14:21:43.076Z,10.20
2017-09-28T14:24:09.632Z,11.17
2017-09-28T14:26:36.193Z,10.43
2017-09-28T14:29:03.406Z,11.20
2017-09-28T14:31:29.883Z,10.57
2017-09-28T14:33:57.074Z,10.43
2017-09-28T14:36:23.552Z,10.23
2017-09-28T14:38:50.039Z,8.77
2017-09-28T14:41:16.503Z,9.57
2017-09-28T14:43:42.993Z,8.93
2017-09-28T14:46:09.422Z,9.30
2017-09-28T14:48:35.859Z,9.30
2017-09-28T14:51:02.396Z,9.03
2017-09-28T14:53:28.847Z,9.03
2017-09-28T14:55:55.331Z,8.50
2017-09-28T14:58:22.502Z,9.30
2017-09-28T15:00:48.947Z,9.60
2017-09-28T15:03:15.382Z,9.20
2017-09-28T15:05:41.820Z,8.50
2017-09-28T15:08:08.260Z,10.40
2017-09-28T15:10:34.730Z,9.47
2017-09-28T15:13:01.454Z,9.47
2017-09-28T15:15:27.909Z,8.50
2017-09-28T15:17:55.112Z,9.23
2017-09-28T15:20:21.576Z,10.20
2017-09-28T15:22:48.050Z,9.70
2017-09-28T15:25:14.528Z,11.90
2017-09-28T15:27:40.957Z,11.90
2017-09-28T15:30:07.424Z,11.83
2017-09-28T15:32:33.934Z,12.50
2017-09-28T15:35:00.392Z,11.70
2017-09-28T15:37:26.936Z,11.80
2017-09-28T15:39:54.106Z,12.03
2017-09-28T15:42:20.565Z,12.33
2017-09-28T15:44:47.020Z,12.67
2017-09-28T15:47:13.665Z,12.90
2017-09-28T15:49:40.168Z,21.07
2017-09-28T15:52:06.614Z,13.50
2017-09-28T15:54:33.086Z,15.30
2017-09-28T15:57:00.271Z,14.90
2017-09-28T15:59:26.815Z,15.10
2017-09-28T16:01:53.263Z,16.20
2017-09-28T16:04:19.736Z,16.53
2017-09-28T16:06:46.194Z,14.87
2017-09-28T16:09:12.626Z,16.10
2017-09-28T16:11:39.147Z,14.90
2017-09-28T16:14:06.322Z,15.53
2017-09-28T16:16:32.784Z,15.63
2017-09-28T16:18:59.240Z,15.27
2017-09-28T16:21:25.731Z,15.47
2017-09-28T16:23:52.161Z,16.87
2017-09-28T16:26:18.634Z,15.20
2017-09-28T16:28:45.307Z,15.27
2017-09-28T16:31:12.019Z,15.07
2017-09-28T16:33:38.509Z,15.37
2017-09-28T16:36:05.908Z,15.23
2017-09-28T16:38:32.423Z,15.70
2017-09-28T16:40:58.883Z,15.40
2017-09-28T16:43:25.320Z,14.00
2017-09-28T16:45:51.784Z,16.00
2017-09-28T16:48:18.264Z,15.40
2017-09-28T16:50:44.769Z,15.10
2017-09-28T16:53:11.199Z,14.27
2017-09-28T16:55:37.679Z,13.80
2017-09-28T16:58:04.097Z,14.63
2017-09-28T17:00:30.596Z,15.07
2017-09-28T17:02:57.031Z,14.13
2017-09-28T17:05:23.586Z,13.63
2017-09-28T17:07:50.090Z,13.90
2017-09-28T17:10:16.575Z,14.97
2017-09-28T17:12:43.091Z,15.07
2017-09-28T17:15:09.520Z,14.17
2017-09-28T17:17:36.001Z,14.83
2017-09-28T17:20:03.308Z,14.90
2017-09-28T17:22:29.812Z,15.27
2017-09-28T17:24:56.302Z,14.97
2017-09-28T17:27:23.472Z,14.63
2017-09-28T17:29:50.685Z,16.50
2017-09-28T17:32:17.345Z,16.33
2017-09-28T17:34:44.584Z,16.10
2017-09-28T17:37:12.510Z,15.63
2017-09-28T17:39:39.304Z,16.63
2017-09-28T17:42:05.804Z,19.40
2017-09-28T17:44:32.308Z,18.20
2017-09-28T17:46:58.821Z,17.93
2017-09-28T17:49:26.028Z,18.33
2017-09-28T17:51:52.551Z,17.60
2017-09-28T17:54:19.012Z,16.50
2017-09-28T17:56:45.464Z,18.10
2017-09-28T17:59:12.688Z,18.73
2017-09-28T18:01:39.188Z,20.20
2017-09-28T18:04:05.644Z,17.90
2017-09-28T18:06:32.115Z,16.90
2017-09-28T18:08:59.341Z,18.03
2017-09-28T18:11:25.873Z,17.93
2017-09-28T18:13:52.359Z,17.33
2017-09-28T18:16:18.853Z,19.17
2017-09-28T18:18:46.100Z,18.00
2017-09-28T18:21:12.607Z,18.23
2017-09-28T18:23:39.390Z,18.77
2017-09-28T18:26:06.598Z,21.80
2017-09-28T18:28:33.059Z,21.60
2017-09-28T18:30:59.676Z,18.97
2017-09-28T18:33:26.168Z,22.00
2017-09-28T18:35:53.369Z,20.77
2017-09-28T18:38:19.809Z,20.20
2017-09-28T18:40:46.289Z,20.97
2017-09-28T18:43:12.736Z,19.70
2017-09-28T18:45:39.484Z,19.17
2017-09-28T18:48:06.089Z,19.60
2017-09-28T18:50:33.539Z,21.27
2017-09-28T18:53:00.756Z,20.60
2017-09-28T18:55:27.275Z,20.77
2017-09-28T18:57:53.740Z,20.87
2017-09-28T19:00:21.050Z,20.50
2017-09-28T19:02:47.541Z,21.40
2017-09-28T19:05:14.766Z,19.60
2017-09-28T19:07:41.292Z,20.30
2017-09-28T19:10:07.875Z,20.07
2017-09-28T19:12:35.100Z,20.93
2017-09-28T19:15:02.316Z,20.67
2017-09-28T19:17:28.768Z,20.87
2017-09-28T19:19:55.252Z,22.33
2017-09-28T19:22:21.698Z,20.13
2017-09-28T19:24:48.155Z,21.10
2017-09-28T19:27:14.627Z,20.50
2017-09-28T19:29:41.079Z,19.50
2017-09-28T19:32:08.263Z,19.33
2017-09-28T19:34:34.720Z,20.50
2017-09-28T19:37:01.160Z,20.07
2017-09-28T19:39:27.636Z,23.40
2017-09-28T19:41:54.157Z,22.67
2017-09-28T19:44:21.391Z,21.30
2017-09-28T19:46:47.840Z,21.03
2017-09-28T19:49:15.096Z,26.63
2017-09-28T19:51:42.331Z,22.63
2017-09-28T19:54:09.694Z,23.70
2017-09-28T19:56:36.971Z,23.27
2017-09-28T20:01:52.288Z,20.67
2017-09-28T20:04:18.752Z,21.83
2017-09-28T20:06:45.203Z,22.27
2017-09-28T20:09:12.419Z,22.10
2017-09-28T20:11:38.905Z,22.10
2017-09-28T20:14:05.392Z,21.43
2017-09-28T20:16:31.887Z,21.00
2017-09-28T20:18:58.335Z,21.40
2017-09-28T20:21:24.844Z,22.30
2017-09-28T20:23:51.286Z,24.87
2017-09-28T20:26:17.789Z,22.27
2017-09-28T20:28:44.999Z,24.97
2017-09-28T20:31:11.573Z,24.00
2017-09-28T20:33:38.732Z,23.23
2017-09-28T20:36:05.944Z,24.33
2017-09-28T20:38:32.387Z,25.40
2017-09-28T20:40:58.859Z,60.33
2017-09-28T20:43:25.240Z,22.20
2017-09-28T20:45:51.720Z,23.73
2017-09-28T20:48:18.999Z,29.90
2017-09-28T20:50:45.492Z,22.90
2017-09-28T20:53:12.759Z,24.00
2017-09-28T20:55:39.935Z,24.50
2017-09-28T20:58:06.409Z,23.50
2017-09-28T21:00:33.663Z,21.27
2017-09-28T21:03:00.176Z,22.47
2017-09-28T21:05:26.596Z,22.57
2017-09-28T21:07:53.055Z,24.77
2017-09-28T21:10:19.558Z,24.23
2017-09-28T21:12:46.047Z,22.00
2017-09-28T21:15:13.257Z,23.20
2017-09-28T21:17:39.719Z,26.10
2017-09-28T21:20:07.039Z,24.80
2017-09-28T21:22:33.499Z,22.57
2017-09-28T21:24:59.959Z,24.10
2017-09-28T21:27:27.206Z,25.63
2017-09-28T21:29:54.394Z,26.97
2017-09-28T21:32:20.834Z,29.67
2017-09-28T21:34:47.319Z,35.60
2017-09-28T21:37:14.608Z,24.30
2017-09-28T21:39:41.087Z,21.80
2017-09-28T21:42:07.539Z,21.07
2017-09-28T21:44:34.752Z,25.03
2017-09-28T21:47:01.182Z,24.87
2017-09-28T21:49:27.707Z,25.90
2017-09-28T21:51:54.146Z,24.50
2017-09-28T21:54:20.568Z,22.27
2017-09-28T21:56:47.038Z,28.40
2017-09-28T21:59:13.539Z,29.00
2017-09-28T22:01:39.952Z,27.60
2017-09-28T22:04:06.430Z,27.57
2017-09-28T22:06:32.929Z,26.80
2017-09-28T22:08:59.371Z,25.00
2017-09-28T22:11:25.790Z,25.53
2017-09-28T22:13:52.217Z,24.60
2017-09-28T22:16:18.716Z,26.07
2017-09-28T22:18:45.912Z,25.20
2017-09-28T22:21:12.539Z,26.70
2017-09-28T22:23:38.992Z,24.60
2017-09-28T22:26:05.406Z,28.40
2017-09-28T22:28:31.887Z,25.93
2017-09-28T22:30:58.347Z,26.13
2017-09-28T22:33:25.677Z,28.20
2017-09-28T22:35:52.169Z,26.97
2017-09-28T22:38:19.314Z,30.37
2017-09-28T22:40:45.732Z,28.53
2017-09-28T22:43:12.200Z,31.20
2017-09-28T22:45:38.699Z,31.67
2017-09-28T22:48:05.916Z,29.43
2017-09-28T22:50:33.887Z,28.80
2017-09-28T22:53:01.047Z,29.43
2017-09-28T22:55:28.262Z,31.60
2017-09-28T22:57:54.732Z,33.90
2017-09-28T23:00:22.123Z,28.00
2017-09-28T23:02:48.595Z,30.60
2017-09-28T23:05:15.139Z,31.27
2017-09-28T23:07:43.039Z,29.40
2017-09-28T23:10:10.323Z,30.53
2017-09-28T23:12:36.779Z,29.63
2017-09-28T23:15:03.316Z,29.10
2017-09-28T23:17:29.752Z,28.43
2017-09-28T23:19:56.199Z,28.63
2017-09-28T23:22:23.498Z,26.57
2017-09-28T23:24:50.024Z,29.23
2017-09-28T23:27:16.492Z,28.20
2017-09-28T23:29:42.955Z,27.87
2017-09-28T23:32:10.168Z,26.30
2017-09-28T23:34:36.591Z,26.83
2017-09-28T23:37:03.063Z,24.90
2017-09-28T23:39:30.231Z,28.33
2017-09-28T23:41:57.408Z,27.07
2017-09-28T23:44:23.872Z,28.20
2017-09-28T23:46:50.311Z,26.90
2017-09-28T23:49:16.773Z,29.33
2017-09-28T23:51:43.998Z,26.93
2017-09-28T23:54:10.459Z,28.37
2017-09-28T23:56:37.646Z,28.50
2017-09-28T23:59:04.119Z,30.00
